createdAt,value
2023-03-29T00:00:14.380Z,-1.39
2023-03-29T00:02:42.624Z,-1.35
2023-03-29T00:05:12.351Z,-1.39
2023-03-29T00:07:40.450Z,-1.44
2023-03-29T00:10:11.960Z,-1.39
2023-03-29T00:12:41.639Z,-1.34
2023-03-29T00:15:10.612Z,-1.39
2023-03-29T00:17:39.982Z,-1.38
2023-03-29T00:20:10.332Z,-1.37
2023-03-29T00:22:39.866Z,-1.40
2023-03-29T00:25:10.048Z,-1.41
2023-03-29T00:27:38.735Z,-1.39
2023-03-29T00:30:08.973Z,-1.41
2023-03-29T00:32:37.199Z,-1.44
2023-03-29T00:35:06.421Z,-1.40
2023-03-29T00:37:35.611Z,-1.54
2023-03-29T00:40:07.810Z,-1.41
2023-03-29T00:42:37.411Z,-1.40
2023-03-29T00:45:08.738Z,-1.40
2023-03-29T00:47:41.567Z,-1.36
2023-03-29T00:50:15.843Z,-1.42
2023-03-29T00:52:50.626Z,-1.46
2023-03-29T00:55:22.819Z,-1.40
2023-03-29T00:57:55.773Z,-1.45
2023-03-29T01:00:34.120Z,-1.45
2023-03-29T01:03:07.145Z,-1.41
2023-03-29T01:05:40.492Z,-1.54
2023-03-29T01:08:12.526Z,-1.48
2023-03-29T01:10:45.035Z,-1.51
2023-03-29T01:13:18.386Z,-1.48
2023-03-29T01:15:47.997Z,-1.48
2023-03-29T01:18:15.946Z,-1.48
2023-03-29T01:21:15.211Z,-1.50
2023-03-29T01:24:22.191Z,-1.50
2023-03-29T01:26:58.499Z,-1.50
2023-03-29T01:29:30.365Z,-1.51
2023-03-29T01:32:03.306Z,-1.51
2023-03-29T01:34:37.343Z,-1.48
2023-03-29T01:37:10.215Z,-1.46
2023-03-29T01:39:38.094Z,-1.48
2023-03-29T01:42:16.651Z,-1.50
2023-03-29T01:44:52.370Z,-1.55
2023-03-29T01:47:28.767Z,-1.50
2023-03-29T01:50:06.686Z,-1.48
2023-03-29T01:52:37.614Z,-1.53
2023-03-29T01:55:09.977Z,-1.48
2023-03-29T01:57:40.905Z,-1.48
2023-03-29T02:00:15.359Z,-1.50
2023-03-29T02:02:45.479Z,-1.53
2023-03-29T02:05:16.272Z,-1.50
2023-03-29T02:07:46.196Z,-1.52
2023-03-29T02:10:15.579Z,-1.54
2023-03-29T02:12:43.570Z,-1.51
2023-03-29T02:15:15.848Z,-1.53
2023-03-29T02:17:44.965Z,-1.57
2023-03-29T02:20:19.562Z,-1.51
2023-03-29T02:22:53.382Z,-1.52
2023-03-29T02:25:22.845Z,-1.55
2023-03-29T02:27:51.035Z,-1.60
2023-03-29T02:30:24.693Z,-1.64
2023-03-29T02:32:59.518Z,-1.54
2023-03-29T02:35:35.135Z,-1.60
2023-03-29T02:38:06.465Z,-1.63
2023-03-29T02:40:36.018Z,-1.59
2023-03-29T02:43:04.978Z,-1.59
2023-03-29T02:45:37.036Z,-1.60
2023-03-29T02:48:10.086Z,-1.59
2023-03-29T02:50:40.861Z,-1.60
2023-03-29T02:53:17.265Z,-1.60
2023-03-29T02:55:46.920Z,-1.59
2023-03-29T02:58:15.682Z,-1.63
2023-03-29T03:00:47.390Z,-1.62
2023-03-29T03:03:16.855Z,-1.63
2023-03-29T03:05:45.026Z,-1.61
2023-03-29T03:08:14.103Z,-1.60
2023-03-29T03:10:42.217Z,-1.67
2023-03-29T03:13:10.200Z,-1.66
2023-03-29T03:15:42.674Z,-1.75
2023-03-29T03:18:12.794Z,-1.71
2023-03-29T03:20:40.953Z,-1.67
2023-03-29T03:23:10.755Z,-1.63
2023-03-29T03:25:38.787Z,-1.68
2023-03-29T03:28:06.909Z,-1.61
2023-03-29T03:30:35.070Z,-1.61
2023-03-29T03:33:02.976Z,-1.62
2023-03-29T03:35:32.399Z,-1.55
2023-03-29T03:38:00.338Z,-1.54
2023-03-29T03:40:28.448Z,-1.56
2023-03-29T03:42:56.359Z,-1.56
2023-03-29T03:45:24.786Z,-1.58
2023-03-29T03:47:52.954Z,-1.63
2023-03-29T03:50:20.897Z,-1.58
2023-03-29T03:52:50.236Z,-1.55
2023-03-29T03:55:18.276Z,-1.62
2023-03-29T03:57:48.004Z,-1.56
2023-03-29T04:00:21.364Z,-1.57
2023-03-29T04:02:49.918Z,-1.67
2023-03-29T04:05:18.252Z,-1.58
2023-03-29T04:07:46.141Z,-1.58
2023-03-29T04:10:15.816Z,-1.62
2023-03-29T04:12:45.269Z,-1.60
2023-03-29T04:15:13.820Z,-1.73
2023-03-29T04:17:41.825Z,-1.63
2023-03-29T04:20:12.676Z,-1.63
2023-03-29T04:22:42.678Z,-1.61
2023-03-29T04:25:11.765Z,-1.63
2023-03-29T04:27:41.420Z,-1.71
2023-03-29T04:30:10.690Z,-1.69
2023-03-29T04:32:38.674Z,-1.67
2023-03-29T04:35:06.961Z,-1.69
2023-03-29T04:37:35.248Z,-1.69
2023-03-29T04:40:04.898Z,-1.70
2023-03-29T04:42:34.293Z,-1.71
2023-03-29T04:45:03.554Z,-1.65
2023-03-29T04:47:31.543Z,-1.62
2023-03-29T04:49:59.491Z,-1.62
2023-03-29T04:52:27.548Z,-1.62
2023-03-29T04:54:55.810Z,-1.54
2023-03-29T04:57:23.848Z,-1.45
2023-03-29T04:59:51.906Z,-1.45
2023-03-29T05:02:22.136Z,-1.49
2023-03-29T05:04:50.485Z,-1.45
2023-03-29T05:07:19.530Z,-1.45
2023-03-29T05:09:47.503Z,-1.36
2023-03-29T05:12:15.486Z,-1.41
2023-03-29T05:14:43.376Z,-1.40
2023-03-29T05:17:11.319Z,-1.40
2023-03-29T05:19:40.568Z,-1.36
2023-03-29T05:22:09.235Z,-1.32
2023-03-29T05:24:37.498Z,-1.35
2023-03-29T05:27:05.490Z,-1.28
2023-03-29T05:29:33.786Z,-1.24
2023-03-29T05:32:01.783Z,-1.36
2023-03-29T05:34:31.063Z,-1.34
2023-03-29T05:37:01.523Z,-1.37
2023-03-29T05:39:29.616Z,-1.33
2023-03-29T05:41:58.737Z,-1.28
2023-03-29T05:44:26.854Z,-1.25
2023-03-29T05:46:54.806Z,-1.05
2023-03-29T05:49:22.687Z,-0.90
2023-03-29T05:51:52.061Z,-0.68
2023-03-29T05:54:21.599Z,-0.70
2023-03-29T05:56:49.669Z,-0.68
2023-03-29T05:59:18.143Z,-0.68
2023-03-29T06:01:47.048Z,-0.82
2023-03-29T06:04:15.908Z,-0.72
2023-03-29T06:06:43.943Z,-0.79
2023-03-29T06:09:12.004Z,-0.76
2023-03-29T06:11:41.494Z,-0.67
2023-03-29T06:14:09.441Z,-0.63
2023-03-29T06:16:38.085Z,-0.56
2023-03-29T06:19:07.360Z,-0.58
2023-03-29T06:21:35.734Z,-0.53
2023-03-29T06:24:04.142Z,-0.47
2023-03-29T06:26:32.230Z,-0.48
2023-03-29T06:29:01.613Z,-0.34
2023-03-29T06:31:30.128Z,-0.34
2023-03-29T06:33:58.796Z,-0.35
2023-03-29T06:36:26.990Z,-0.39
2023-03-29T06:38:55.439Z,-0.33
2023-03-29T06:41:23.809Z,-0.29
2023-03-29T06:43:51.847Z,-0.34
2023-03-29T06:46:21.114Z,-0.09
2023-03-29T06:48:49.048Z,0.04
2023-03-29T06:51:17.252Z,-0.02
2023-03-29T06:53:45.689Z,-0.02
2023-03-29T06:56:14.629Z,0.07
2023-03-29T06:58:43.008Z,0.14
2023-03-29T07:01:11.607Z,-0.05
2023-03-29T07:03:41.367Z,0.30
2023-03-29T07:06:11.791Z,0.44
2023-03-29T07:08:43.770Z,0.17
2023-03-29T07:11:13.866Z,0.27
2023-03-29T07:13:42.700Z,0.24
2023-03-29T07:16:12.751Z,0.19
2023-03-29T07:18:44.109Z,0.35
2023-03-29T07:21:14.089Z,0.39
2023-03-29T07:23:42.483Z,0.33
2023-03-29T07:26:11.232Z,0.45
2023-03-29T07:28:41.013Z,0.65
2023-03-29T07:31:11.982Z,0.73
2023-03-29T07:33:40.842Z,0.76
2023-03-29T07:36:11.745Z,0.90
2023-03-29T07:38:39.699Z,0.82
2023-03-29T07:41:09.003Z,0.82
2023-03-29T07:43:36.951Z,0.78
2023-03-29T07:46:07.016Z,0.89
2023-03-29T07:48:37.128Z,0.87
2023-03-29T07:51:06.181Z,0.94
2023-03-29T07:53:35.548Z,0.93
2023-03-29T07:56:03.553Z,0.96
2023-03-29T07:58:31.480Z,0.94
2023-03-29T08:01:01.351Z,0.89
2023-03-29T08:03:29.576Z,1.12
2023-03-29T08:05:57.513Z,0.99
2023-03-29T08:08:25.393Z,0.98
2023-03-29T08:10:54.748Z,1.17
2023-03-29T08:13:22.602Z,1.42
2023-03-29T08:15:50.670Z,1.51
2023-03-29T08:18:18.742Z,1.22
2023-03-29T08:20:46.788Z,1.36
2023-03-29T08:23:14.719Z,1.90
2023-03-29T08:25:42.570Z,1.71
2023-03-29T08:28:15.440Z,1.71
2023-03-29T08:30:43.545Z,1.66
2023-03-29T08:33:12.265Z,1.51
2023-03-29T08:35:40.480Z,1.67
2023-03-29T08:38:08.560Z,1.86
2023-03-29T08:40:36.737Z,1.76
2023-03-29T08:43:37.129Z,1.83
2023-03-29T08:46:19.365Z,1.94
2023-03-29T08:48:53.810Z,2.25
2023-03-29T08:51:24.823Z,2.07
2023-03-29T08:53:57.557Z,1.96
2023-03-29T08:56:31.518Z,2.24
2023-03-29T08:59:02.337Z,1.94
2023-03-29T09:01:35.423Z,2.19
2023-03-29T09:04:09.031Z,2.20
2023-03-29T09:06:43.143Z,2.19
2023-03-29T09:09:15.871Z,2.28
2023-03-29T09:11:58.525Z,2.35
2023-03-29T09:14:47.409Z,2.33
2023-03-29T09:17:28.604Z,2.36
2023-03-29T09:20:06.431Z,2.36
2023-03-29T09:22:45.820Z,2.33
2023-03-29T09:25:24.917Z,2.56
2023-03-29T09:28:01.448Z,2.77
2023-03-29T09:30:33.174Z,2.67
2023-03-29T09:33:11.831Z,2.93
2023-03-29T09:35:43.440Z,3.23
2023-03-29T09:38:14.025Z,3.06
2023-03-29T09:40:46.384Z,3.16
2023-03-29T09:43:18.428Z,3.42
2023-03-29T09:45:54.737Z,3.42
2023-03-29T09:48:26.217Z,3.38
2023-03-29T09:50:54.346Z,3.73
2023-03-29T09:53:23.114Z,3.34
2023-03-29T09:55:52.483Z,3.59
2023-03-29T09:58:24.679Z,3.83
2023-03-29T10:00:53.222Z,3.83
2023-03-29T10:03:23.907Z,3.68
2023-03-29T10:05:55.297Z,3.62
2023-03-29T10:08:28.329Z,3.53
2023-03-29T10:10:58.615Z,3.93
2023-03-29T10:13:30.660Z,4.03
2023-03-29T10:16:02.549Z,4.52
2023-03-29T10:18:33.782Z,5.02
2023-03-29T10:21:03.739Z,4.66
2023-03-29T10:23:33.925Z,4.76
2023-03-29T10:26:04.305Z,5.21
2023-03-29T10:28:34.329Z,5.62
2023-03-29T10:31:04.118Z,5.42
2023-03-29T10:33:35.845Z,5.11
2023-03-29T10:36:08.112Z,5.07
2023-03-29T10:38:37.684Z,5.85
2023-03-29T10:41:10.063Z,5.99
2023-03-29T10:43:39.723Z,5.93
2023-03-29T10:46:10.878Z,6.02
2023-03-29T10:48:41.191Z,6.06
2023-03-29T10:51:15.917Z,6.36
2023-03-29T10:53:44.178Z,6.78
2023-03-29T10:56:29.874Z,6.54
2023-03-29T10:59:24.359Z,6.73
2023-03-29T11:02:26.092Z,6.88
2023-03-29T11:05:06.542Z,6.87
2023-03-29T11:07:37.085Z,6.95
2023-03-29T11:10:26.104Z,7.03
2023-03-29T11:13:00.893Z,6.56
2023-03-29T11:15:42.252Z,6.96
2023-03-29T11:18:30.570Z,7.28
2023-03-29T11:21:10.712Z,7.27
2023-03-29T11:23:50.849Z,6.89
2023-03-29T11:26:24.608Z,6.56
2023-03-29T11:28:58.999Z,6.75
2023-03-29T11:31:38.977Z,6.87
2023-03-29T11:34:22.081Z,6.62
2023-03-29T11:36:58.563Z,6.58
2023-03-29T11:39:34.092Z,6.15
2023-03-29T11:42:09.358Z,6.25
2023-03-29T11:44:38.618Z,6.67
2023-03-29T11:47:14.032Z,6.47
2023-03-29T11:49:46.897Z,6.90
2023-03-29T11:52:19.862Z,7.62
2023-03-29T11:54:53.552Z,7.20
2023-03-29T11:57:27.237Z,7.31
2023-03-29T12:00:00.492Z,7.76
2023-03-29T12:02:33.706Z,8.12
2023-03-29T12:05:08.180Z,7.63
2023-03-29T12:07:43.121Z,7.28
2023-03-29T12:10:18.542Z,7.72
2023-03-29T12:12:50.066Z,7.49
2023-03-29T12:15:21.532Z,7.61
2023-03-29T12:18:00.254Z,7.36
2023-03-29T12:20:32.108Z,7.89
2023-03-29T12:23:01.918Z,8.12
2023-03-29T12:25:34.160Z,7.51
2023-03-29T12:28:17.536Z,7.77
2023-03-29T12:30:57.513Z,7.97
2023-03-29T12:33:42.656Z,7.79
2023-03-29T12:36:21.782Z,7.90
2023-03-29T12:38:53.220Z,8.04
2023-03-29T12:41:22.899Z,8.67
2023-03-29T12:43:52.136Z,7.66
2023-03-29T12:46:24.080Z,7.42
2023-03-29T12:48:57.154Z,8.01
2023-03-29T12:51:31.844Z,9.03
2023-03-29T12:54:09.789Z,9.20
2023-03-29T12:56:41.543Z,9.74
2023-03-29T12:59:25.702Z,9.88
2023-03-29T13:02:01.107Z,9.44
2023-03-29T13:04:39.504Z,8.33
2023-03-29T13:07:15.530Z,7.79
2023-03-29T13:09:53.030Z,7.65
2023-03-29T13:12:26.758Z,7.91
2023-03-29T13:14:56.773Z,8.31
2023-03-29T13:17:35.280Z,7.85
2023-03-29T13:20:34.929Z,7.64
2023-03-29T13:23:18.546Z,7.89
2023-03-29T13:26:02.346Z,7.41
2023-03-29T13:28:38.413Z,7.06
2023-03-29T13:31:19.364Z,7.04
2023-03-29T13:33:58.562Z,6.95
2023-03-29T13:36:39.724Z,7.14
2023-03-29T13:39:08.479Z,7.30
2023-03-29T13:41:49.274Z,7.30
2023-03-29T13:44:29.523Z,7.25
2023-03-29T13:47:06.900Z,7.78
2023-03-29T13:49:36.728Z,7.97
2023-03-29T13:52:16.058Z,7.31
2023-03-29T13:54:54.466Z,7.36
2023-03-29T13:57:32.837Z,7.39
2023-03-29T14:00:07.235Z,7.63
2023-03-29T14:02:41.910Z,7.94
2023-03-29T14:05:14.385Z,8.68
2023-03-29T14:07:50.060Z,8.11
2023-03-29T14:10:29.197Z,8.09
2023-03-29T14:13:04.325Z,7.77
2023-03-29T14:15:45.820Z,8.25
2023-03-29T14:18:17.604Z,8.29
2023-03-29T14:20:50.307Z,8.19
2023-03-29T14:23:22.522Z,8.59
2023-03-29T14:25:51.051Z,8.96
2023-03-29T14:28:25.336Z,9.04
2023-03-29T14:30:53.732Z,8.53
2023-03-29T14:33:29.760Z,8.07
2023-03-29T14:36:00.871Z,8.08
2023-03-29T14:38:29.888Z,8.58
2023-03-29T14:41:03.497Z,8.69
2023-03-29T14:43:33.256Z,8.23
2023-03-29T14:46:06.360Z,8.09
2023-03-29T14:48:36.562Z,8.01
2023-03-29T14:51:10.536Z,8.17
2023-03-29T14:53:39.583Z,8.60
2023-03-29T14:56:13.217Z,8.71
2023-03-29T14:58:47.613Z,8.48
2023-03-29T15:01:18.498Z,8.52
2023-03-29T15:03:54.820Z,8.41
2023-03-29T15:06:25.300Z,8.37
2023-03-29T15:09:04.493Z,8.14
2023-03-29T15:11:35.213Z,8.17
2023-03-29T15:14:08.975Z,8.16
2023-03-29T15:16:41.415Z,8.08
2023-03-29T15:19:17.712Z,7.94
2023-03-29T15:21:48.998Z,7.75
2023-03-29T15:24:23.373Z,8.00
2023-03-29T15:27:03.212Z,8.16
2023-03-29T15:29:41.925Z,8.61
2023-03-29T15:32:11.696Z,8.73
2023-03-29T15:34:39.689Z,8.49
2023-03-29T15:37:08.133Z,8.21
2023-03-29T15:39:36.655Z,8.25
2023-03-29T15:42:04.587Z,8.16
2023-03-29T15:44:35.326Z,7.85
2023-03-29T15:47:04.956Z,7.38
2023-03-29T15:49:32.929Z,7.23
2023-03-29T15:52:00.863Z,6.87
2023-03-29T15:54:30.948Z,6.60
2023-03-29T15:57:04.568Z,6.49
2023-03-29T15:59:33.151Z,6.33
2023-03-29T16:02:02.041Z,6.37
2023-03-29T16:04:31.354Z,6.28
2023-03-29T16:06:59.486Z,6.10
2023-03-29T16:09:27.486Z,6.03
2023-03-29T16:11:55.341Z,6.01
2023-03-29T16:14:27.127Z,5.96
2023-03-29T16:16:55.868Z,5.88
2023-03-29T16:19:25.701Z,5.89
2023-03-29T16:21:55.958Z,5.84
2023-03-29T16:24:26.467Z,5.87
2023-03-29T16:26:56.482Z,5.87
2023-03-29T16:29:24.661Z,5.89
2023-03-29T16:31:53.419Z,5.86
2023-03-29T16:34:22.895Z,5.85
2023-03-29T16:36:53.007Z,5.77
2023-03-29T16:39:22.444Z,5.82
2023-03-29T16:41:50.690Z,5.75
2023-03-29T16:44:23.924Z,5.71
2023-03-29T16:46:54.000Z,5.64
2023-03-29T16:49:22.489Z,5.73
2023-03-29T16:51:50.449Z,5.70
2023-03-29T16:54:18.963Z,5.70
2023-03-29T16:56:48.303Z,5.66
2023-03-29T16:59:16.712Z,5.57
2023-03-29T17:01:45.040Z,5.69
2023-03-29T17:04:13.035Z,5.73
2023-03-29T17:06:42.100Z,5.72
2023-03-29T17:09:17.751Z,5.71
2023-03-29T17:11:46.130Z,5.65
2023-03-29T17:14:15.694Z,5.69
2023-03-29T17:16:43.832Z,5.61
2023-03-29T17:19:11.793Z,5.64
2023-03-29T17:21:39.708Z,5.60
2023-03-29T17:24:09.773Z,5.47
2023-03-29T17:26:38.571Z,5.54
2023-03-29T17:29:06.732Z,5.54
2023-03-29T17:31:36.642Z,5.52
2023-03-29T17:34:06.204Z,5.51
2023-03-29T17:36:34.177Z,5.47
2023-03-29T17:39:02.945Z,5.50
2023-03-29T17:41:31.318Z,5.46
2023-03-29T17:43:59.397Z,5.52
2023-03-29T17:46:27.355Z,5.37
2023-03-29T17:48:59.146Z,5.43
2023-03-29T17:51:28.275Z,5.46
2023-03-29T17:53:58.706Z,5.41
2023-03-29T17:56:26.700Z,5.45
2023-03-29T17:58:54.882Z,5.36
2023-03-29T18:01:23.012Z,5.32
2023-03-29T18:03:51.198Z,5.46
2023-03-29T18:06:21.003Z,5.46
2023-03-29T18:08:49.138Z,5.27
2023-03-29T18:11:22.426Z,5.25
2023-03-29T18:13:51.044Z,5.33
2023-03-29T18:16:19.366Z,5.38
2023-03-29T18:18:47.621Z,5.31
2023-03-29T18:21:16.086Z,5.40
2023-03-29T18:23:47.690Z,5.39
2023-03-29T18:26:16.813Z,5.38
2023-03-29T18:28:46.668Z,5.27
2023-03-29T18:31:15.364Z,5.27
2023-03-29T18:33:43.403Z,5.29
2023-03-29T18:36:13.565Z,5.29
2023-03-29T18:38:43.421Z,5.24
2023-03-29T18:41:14.340Z,5.21
2023-03-29T18:43:44.405Z,5.24
2023-03-29T18:46:12.553Z,5.15
2023-03-29T18:48:41.147Z,5.18
2023-03-29T18:51:10.400Z,5.12
2023-03-29T18:53:42.059Z,5.26
2023-03-29T18:56:10.188Z,5.28
2023-03-29T18:58:39.564Z,5.27
2023-03-29T19:01:09.685Z,5.01
2023-03-29T19:03:37.983Z,5.27
2023-03-29T19:06:07.147Z,5.27
2023-03-29T19:08:36.736Z,5.10
2023-03-29T19:11:07.154Z,5.25
2023-03-29T19:13:35.864Z,5.22
2023-03-29T19:16:05.892Z,5.22
2023-03-29T19:18:34.690Z,5.12
2023-03-29T19:21:02.679Z,5.27
2023-03-29T19:23:30.594Z,5.26
2023-03-29T19:26:01.339Z,5.27
2023-03-29T19:28:30.501Z,5.19
2023-03-29T19:31:00.723Z,5.27
2023-03-29T19:33:30.542Z,5.28
2023-03-29T19:35:58.647Z,5.19
2023-03-29T19:38:26.624Z,5.16
2023-03-29T19:40:54.599Z,5.19
2023-03-29T19:43:22.602Z,5.20
2023-03-29T19:45:52.442Z,5.25
2023-03-29T19:48:23.350Z,5.28
2023-03-29T19:50:53.304Z,5.21
2023-03-29T19:53:21.530Z,5.23
2023-03-29T19:55:49.925Z,5.26
2023-03-29T19:58:17.843Z,5.26
2023-03-29T20:00:46.708Z,5.10
2023-03-29T20:03:15.705Z,5.26
2023-03-29T20:05:44.305Z,5.24
2023-03-29T20:08:13.761Z,5.24
2023-03-29T20:10:41.701Z,5.12
2023-03-29T20:13:09.682Z,5.23
2023-03-29T20:15:37.613Z,5.30
2023-03-29T20:18:06.105Z,5.29
2023-03-29T20:20:35.757Z,5.32
2023-03-29T20:23:05.508Z,5.24
2023-03-29T20:25:36.268Z,5.28
2023-03-29T20:28:04.788Z,5.33
2023-03-29T20:30:32.818Z,5.24
2023-03-29T20:33:00.948Z,5.19
2023-03-29T20:35:28.925Z,5.31
2023-03-29T20:37:56.885Z,5.33
2023-03-29T20:40:25.146Z,5.22
2023-03-29T20:42:55.010Z,5.26
2023-03-29T20:45:22.975Z,5.28
2023-03-29T20:47:57.816Z,5.30
2023-03-29T20:50:29.319Z,5.23
2023-03-29T20:53:02.299Z,5.29
2023-03-29T20:55:33.265Z,5.28
2023-03-29T20:58:03.412Z,5.28
2023-03-29T21:00:35.430Z,5.25
2023-03-29T21:03:04.645Z,5.33
2023-03-29T21:05:34.016Z,5.29
2023-03-29T21:08:02.505Z,5.22
2023-03-29T21:10:30.943Z,5.32
2023-03-29T21:13:00.642Z,5.15
2023-03-29T21:15:31.975Z,5.22
2023-03-29T21:17:59.993Z,5.33
2023-03-29T21:20:28.663Z,5.41
2023-03-29T21:22:56.586Z,5.30
2023-03-29T21:25:24.504Z,5.40
2023-03-29T21:27:52.395Z,5.40
2023-03-29T21:30:20.282Z,5.45
2023-03-29T21:32:49.640Z,5.35
2023-03-29T21:35:17.711Z,5.47
2023-03-29T21:37:45.620Z,5.46
2023-03-29T21:40:14.638Z,5.48
2023-03-29T21:42:42.577Z,5.45
2023-03-29T21:45:11.971Z,5.43
2023-03-29T21:47:39.924Z,5.41
2023-03-29T21:50:10.793Z,5.42
2023-03-29T21:52:39.071Z,5.36
2023-03-29T21:55:07.754Z,5.45
2023-03-29T21:57:35.681Z,5.42
2023-03-29T22:00:05.534Z,5.45
2023-03-29T22:02:33.507Z,5.42
2023-03-29T22:05:01.413Z,5.39
2023-03-29T22:07:30.706Z,5.40
2023-03-29T22:10:04.275Z,5.40
2023-03-29T22:12:34.532Z,5.32
2023-03-29T22:15:02.955Z,5.40
2023-03-29T22:17:30.996Z,5.43
2023-03-29T22:19:59.013Z,5.42
2023-03-29T22:22:27.091Z,5.43
2023-03-29T22:24:57.044Z,5.40
2023-03-29T22:27:25.248Z,5.48
2023-03-29T22:29:53.243Z,5.48
2023-03-29T22:32:21.169Z,5.44
2023-03-29T22:34:49.120Z,5.51
2023-03-29T22:37:18.003Z,5.56
2023-03-29T22:39:46.465Z,5.54
2023-03-29T22:42:16.087Z,5.55
2023-03-29T22:44:44.150Z,5.55
2023-03-29T22:47:12.153Z,5.57
2023-03-29T22:49:40.038Z,5.55
2023-03-29T22:52:08.074Z,5.59
2023-03-29T22:54:36.039Z,5.51
2023-03-29T22:57:04.057Z,5.56
2023-03-29T22:59:33.411Z,5.54
2023-03-29T23:02:01.477Z,5.55
2023-03-29T23:04:29.522Z,5.56
2023-03-29T23:06:58.426Z,5.53
2023-03-29T23:09:26.346Z,5.53
2023-03-29T23:11:54.208Z,5.54
2023-03-29T23:14:22.752Z,5.53
2023-03-29T23:16:52.107Z,5.49
2023-03-29T23:19:20.162Z,5.27
2023-03-29T23:21:48.068Z,5.47
2023-03-29T23:24:19.069Z,5.40
2023-03-29T23:26:49.043Z,5.36
2023-03-29T23:29:16.917Z,5.31
2023-03-29T23:31:45.408Z,5.24
2023-03-29T23:34:14.908Z,5.27
2023-03-29T23:36:42.812Z,5.32
2023-03-29T23:39:10.727Z,5.20
2023-03-29T23:41:40.252Z,5.26
2023-03-29T23:44:08.565Z,5.26
2023-03-29T23:46:36.519Z,5.16
2023-03-29T23:49:04.494Z,5.19
2023-03-29T23:51:35.060Z,5.07
2023-03-29T23:54:05.661Z,5.15
2023-03-29T23:56:33.578Z,5.10
2023-03-29T23:59:01.507Z,5.13
